sensor_id;sensor_type;location;lat;lon;timestamp;temperature;humidity
43043;DHT22;28667;50.758;6.096;2023-03-16T00:00:48;2.40;99.90
43043;DHT22;28667;50.758;6.096;2023-03-16T00:03:14;2.40;99.90
43043;DHT22;28667;50.758;6.096;2023-03-16T00:05:51;2.50;99.90
43043;DHT22;28667;50.758;6.096;2023-03-16T00:08:17;2.60;99.90
43043;DHT22;28667;50.758;6.096;2023-03-16T00:10:47;2.50;99.90
43043;DHT22;28667;50.758;6.096;2023-03-16T00:13:17;2.60;99.90
43043;DHT22;28667;50.758;6.096;2023-03-16T00:15:53;2.60;99.90
43043;DHT22;28667;50.758;6.096;2023-03-16T00:18:20;2.60;99.90
43043;DHT22;28667;50.758;6.096;2023-03-16T00:20:51;2.60;99.90
43043;DHT22;28667;50.758;6.096;2023-03-16T00:23:17;2.70;99.90
43043;DHT22;28667;50.758;6.096;2023-03-16T00:25:42;2.70;99.90
43043;DHT22;28667;50.758;6.096;2023-03-16T00:28:08;2.70;99.90
43043;DHT22;28667;50.758;6.096;2023-03-16T00:30:34;2.70;99.90
43043;DHT22;28667;50.758;6.096;2023-03-16T00:32:59;2.80;99.90
43043;DHT22;28667;50.758;6.096;2023-03-16T00:35:26;2.80;99.90
43043;DHT22;28667;50.758;6.096;2023-03-16T00:37:52;2.90;99.90
43043;DHT22;28667;50.758;6.096;2023-03-16T00:40:23;2.90;99.90
43043;DHT22;28667;50.758;6.096;2023-03-16T00:42:49;3.00;99.90
43043;DHT22;28667;50.758;6.096;2023-03-16T00:45:15;3.00;99.90
43043;DHT22;28667;50.758;6.096;2023-03-16T00:47:40;3.00;99.90
43043;DHT22;28667;50.758;6.096;2023-03-16T00:50:08;3.00;99.90
43043;DHT22;28667;50.758;6.096;2023-03-16T00:52:34;3.00;99.90
43043;DHT22;28667;50.758;6.096;2023-03-16T00:55:00;3.00;99.90
43043;DHT22;28667;50.758;6.096;2023-03-16T00:57:29;3.00;99.90
43043;DHT22;28667;50.758;6.096;2023-03-16T00:59:55;3.10;99.90
43043;DHT22;28667;50.758;6.096;2023-03-16T01:02:21;3.10;99.90
43043;DHT22;28667;50.758;6.096;2023-03-16T01:04:51;3.20;99.90
43043;DHT22;28667;50.758;6.096;2023-03-16T01:07:19;3.20;99.90
43043;DHT22;28667;50.758;6.096;2023-03-16T01:09:46;3.20;99.90
43043;DHT22;28667;50.758;6.096;2023-03-16T01:12:15;3.30;99.90
43043;DHT22;28667;50.758;6.096;2023-03-16T01:14:41;3.30;99.90
43043;DHT22;28667;50.758;6.096;2023-03-16T01:17:08;3.30;99.90
43043;DHT22;28667;50.758;6.096;2023-03-16T01:19:35;3.40;99.90
43043;DHT22;28667;50.758;6.096;2023-03-16T01:22:04;3.40;99.90
43043;DHT22;28667;50.758;6.096;2023-03-16T01:24:32;3.40;99.90
43043;DHT22;28667;50.758;6.096;2023-03-16T01:26:59;3.50;99.90
43043;DHT22;28667;50.758;6.096;2023-03-16T01:29:25;3.50;99.90
43043;DHT22;28667;50.758;6.096;2023-03-16T01:31:52;3.50;99.90
43043;DHT22;28667;50.758;6.096;2023-03-16T01:34:19;3.50;99.90
43043;DHT22;28667;50.758;6.096;2023-03-16T01:36:49;3.50;99.90
43043;DHT22;28667;50.758;6.096;2023-03-16T01:39:23;3.50;99.90
43043;DHT22;28667;50.758;6.096;2023-03-16T01:41:49;3.60;99.90
43043;DHT22;28667;50.758;6.096;2023-03-16T01:44:18;3.60;99.90
43043;DHT22;28667;50.758;6.096;2023-03-16T01:46:47;3.60;99.90
43043;DHT22;28667;50.758;6.096;2023-03-16T01:49:30;3.60;99.90
43043;DHT22;28667;50.758;6.096;2023-03-16T01:51:59;3.60;99.90
43043;DHT22;28667;50.758;6.096;2023-03-16T01:54:47;3.60;99.90
43043;DHT22;28667;50.758;6.096;2023-03-16T01:57:15;3.60;99.90
43043;DHT22;28667;50.758;6.096;2023-03-16T02:02:17;3.60;99.90
43043;DHT22;28667;50.758;6.096;2023-03-16T02:07:17;3.70;99.90
43043;DHT22;28667;50.758;6.096;2023-03-16T02:09:45;3.70;99.90
43043;DHT22;28667;50.758;6.096;2023-03-16T02:12:15;3.80;99.90
43043;DHT22;28667;50.758;6.096;2023-03-16T02:14:45;3.80;99.90
43043;DHT22;28667;50.758;6.096;2023-03-16T02:17:13;3.80;99.90
43043;DHT22;28667;50.758;6.096;2023-03-16T02:22:53;3.80;99.90
43043;DHT22;28667;50.758;6.096;2023-03-16T02:25:23;3.80;99.90
43043;DHT22;28667;50.758;6.096;2023-03-16T02:30:40;3.90;99.90
43043;DHT22;28667;50.758;6.096;2023-03-16T02:33:06;3.90;99.90
43043;DHT22;28667;50.758;6.096;2023-03-16T02:35:32;3.90;99.90
43043;DHT22;28667;50.758;6.096;2023-03-16T02:37:59;3.90;99.90
43043;DHT22;28667;50.758;6.096;2023-03-16T02:40:32;4.00;99.90
43043;DHT22;28667;50.758;6.096;2023-03-16T02:43:06;4.00;99.90
43043;DHT22;28667;50.758;6.096;2023-03-16T02:45:50;4.00;99.90
43043;DHT22;28667;50.758;6.096;2023-03-16T02:49:06;3.90;99.90
43043;DHT22;28667;50.758;6.096;2023-03-16T02:51:11;3.90;99.90
43043;DHT22;28667;50.758;6.096;2023-03-16T02:53:37;4.00;99.90
43043;DHT22;28667;50.758;6.096;2023-03-16T02:56:03;4.00;99.90
43043;DHT22;28667;50.758;6.096;2023-03-16T02:58:32;4.00;99.90
43043;DHT22;28667;50.758;6.096;2023-03-16T03:01:00;4.00;99.90
43043;DHT22;28667;50.758;6.096;2023-03-16T03:03:26;4.00;99.90
43043;DHT22;28667;50.758;6.096;2023-03-16T03:05:52;3.90;99.90
43043;DHT22;28667;50.758;6.096;2023-03-16T03:08:18;3.90;99.90
43043;DHT22;28667;50.758;6.096;2023-03-16T03:10:48;3.90;99.90
43043;DHT22;28667;50.758;6.096;2023-03-16T03:13:13;3.90;99.90
43043;DHT22;28667;50.758;6.096;2023-03-16T03:15:39;3.90;99.90
43043;DHT22;28667;50.758;6.096;2023-03-16T03:18:08;3.90;99.90
43043;DHT22;28667;50.758;6.096;2023-03-16T03:20:34;3.90;99.90
43043;DHT22;28667;50.758;6.096;2023-03-16T03:23:00;3.80;99.90
43043;DHT22;28667;50.758;6.096;2023-03-16T03:25:27;3.80;99.90
43043;DHT22;28667;50.758;6.096;2023-03-16T03:27:53;3.80;99.90
43043;DHT22;28667;50.758;6.096;2023-03-16T03:30:22;3.80;99.90
43043;DHT22;28667;50.758;6.096;2023-03-16T03:32:49;3.80;99.90
43043;DHT22;28667;50.758;6.096;2023-03-16T03:35:18;3.80;99.90
43043;DHT22;28667;50.758;6.096;2023-03-16T03:37:44;3.80;99.90
43043;DHT22;28667;50.758;6.096;2023-03-16T03:40:14;3.90;99.90
43043;DHT22;28667;50.758;6.096;2023-03-16T03:42:41;3.90;99.90
43043;DHT22;28667;50.758;6.096;2023-03-16T03:45:08;3.90;99.90
43043;DHT22;28667;50.758;6.096;2023-03-16T03:47:38;3.90;99.90
43043;DHT22;28667;50.758;6.096;2023-03-16T03:50:06;3.90;99.90
43043;DHT22;28667;50.758;6.096;2023-03-16T03:52:41;3.90;99.90
43043;DHT22;28667;50.758;6.096;2023-03-16T03:55:07;3.90;99.90
43043;DHT22;28667;50.758;6.096;2023-03-16T03:57:33;3.90;99.90
43043;DHT22;28667;50.758;6.096;2023-03-16T03:59:59;3.90;99.90
43043;DHT22;28667;50.758;6.096;2023-03-16T04:02:41;3.90;99.90
43043;DHT22;28667;50.758;6.096;2023-03-16T04:05:16;3.90;99.90
43043;DHT22;28667;50.758;6.096;2023-03-16T04:07:42;4.00;99.90
43043;DHT22;28667;50.758;6.096;2023-03-16T04:10:10;3.90;99.90
43043;DHT22;28667;50.758;6.096;2023-03-16T04:12:39;4.00;99.90
43043;DHT22;28667;50.758;6.096;2023-03-16T04:15:07;4.00;99.90
43043;DHT22;28667;50.758;6.096;2023-03-16T04:17:43;4.00;99.90
43043;DHT22;28667;50.758;6.096;2023-03-16T04:20:10;4.00;99.90
43043;DHT22;28667;50.758;6.096;2023-03-16T04:22:41;4.00;99.90
43043;DHT22;28667;50.758;6.096;2023-03-16T04:25:12;4.00;99.90
43043;DHT22;28667;50.758;6.096;2023-03-16T04:27:40;4.00;99.90
43043;DHT22;28667;50.758;6.096;2023-03-16T04:30:11;4.00;99.90
43043;DHT22;28667;50.758;6.096;2023-03-16T04:32:41;4.00;99.90
43043;DHT22;28667;50.758;6.096;2023-03-16T04:35:07;4.00;99.90
43043;DHT22;28667;50.758;6.096;2023-03-16T04:37:45;4.00;99.90
43043;DHT22;28667;50.758;6.096;2023-03-16T04:40:11;4.10;99.90
43043;DHT22;28667;50.758;6.096;2023-03-16T04:42:43;4.10;99.90
43043;DHT22;28667;50.758;6.096;2023-03-16T04:45:13;4.10;99.90
43043;DHT22;28667;50.758;6.096;2023-03-16T04:47:39;4.10;99.90
43043;DHT22;28667;50.758;6.096;2023-03-16T04:50:06;4.10;99.90
43043;DHT22;28667;50.758;6.096;2023-03-16T04:52:32;4.10;99.90
43043;DHT22;28667;50.758;6.096;2023-03-16T04:55:00;4.10;99.90
43043;DHT22;28667;50.758;6.096;2023-03-16T04:57:26;4.10;99.90
43043;DHT22;28667;50.758;6.096;2023-03-16T04:59:53;4.10;99.90
43043;DHT22;28667;50.758;6.096;2023-03-16T05:02:24;4.10;99.90
43043;DHT22;28667;50.758;6.096;2023-03-16T05:04:51;4.10;99.90
43043;DHT22;28667;50.758;6.096;2023-03-16T05:07:16;4.10;99.90
43043;DHT22;28667;50.758;6.096;2023-03-16T05:09:47;4.10;99.90
43043;DHT22;28667;50.758;6.096;2023-03-16T05:12:13;4.10;99.90
43043;DHT22;28667;50.758;6.096;2023-03-16T05:14:39;4.10;99.90
43043;DHT22;28667;50.758;6.096;2023-03-16T05:17:17;4.10;99.90
43043;DHT22;28667;50.758;6.096;2023-03-16T05:19:45;4.10;99.90
43043;DHT22;28667;50.758;6.096;2023-03-16T05:22:12;4.10;99.90
43043;DHT22;28667;50.758;6.096;2023-03-16T05:24:46;4.10;99.90
43043;DHT22;28667;50.758;6.096;2023-03-16T05:27:11;4.10;99.90
43043;DHT22;28667;50.758;6.096;2023-03-16T05:29:37;4.10;99.90
43043;DHT22;28667;50.758;6.096;2023-03-16T05:32:03;4.10;99.90
43043;DHT22;28667;50.758;6.096;2023-03-16T05:34:31;4.10;99.90
43043;DHT22;28667;50.758;6.096;2023-03-16T05:36:57;4.10;99.90
43043;DHT22;28667;50.758;6.096;2023-03-16T05:39:23;4.10;99.90
43043;DHT22;28667;50.758;6.096;2023-03-16T05:41:49;4.10;99.90
43043;DHT22;28667;50.758;6.096;2023-03-16T05:44:47;4.10;99.90
43043;DHT22;28667;50.758;6.096;2023-03-16T05:47:26;4.10;99.90
43043;DHT22;28667;50.758;6.096;2023-03-16T05:49:55;4.10;99.90
43043;DHT22;28667;50.758;6.096;2023-03-16T05:52:30;4.10;99.90
43043;DHT22;28667;50.758;6.096;2023-03-16T05:54:59;4.10;99.90
43043;DHT22;28667;50.758;6.096;2023-03-16T05:57:25;4.10;99.90
43043;DHT22;28667;50.758;6.096;2023-03-16T05:59:51;4.10;99.90
43043;DHT22;28667;50.758;6.096;2023-03-16T06:02:18;4.10;99.90
43043;DHT22;28667;50.758;6.096;2023-03-16T06:04:44;4.10;99.90
43043;DHT22;28667;50.758;6.096;2023-03-16T06:07:11;4.10;99.90
43043;DHT22;28667;50.758;6.096;2023-03-16T06:09:37;4.10;99.90
43043;DHT22;28667;50.758;6.096;2023-03-16T06:12:09;4.20;99.90
43043;DHT22;28667;50.758;6.096;2023-03-16T06:14:36;4.20;99.90
43043;DHT22;28667;50.758;6.096;2023-03-16T06:17:02;4.20;99.90
43043;DHT22;28667;50.758;6.096;2023-03-16T06:19:29;4.30;99.90
43043;DHT22;28667;50.758;6.096;2023-03-16T06:21:58;4.30;99.90
43043;DHT22;28667;50.758;6.096;2023-03-16T06:24:24;4.30;99.90
43043;DHT22;28667;50.758;6.096;2023-03-16T06:26:50;4.40;99.90
43043;DHT22;28667;50.758;6.096;2023-03-16T06:29:18;4.40;99.90
43043;DHT22;28667;50.758;6.096;2023-03-16T06:31:44;4.40;99.90
43043;DHT22;28667;50.758;6.096;2023-03-16T06:34:10;4.50;99.90
43043;DHT22;28667;50.758;6.096;2023-03-16T06:36:36;4.50;99.90
43043;DHT22;28667;50.758;6.096;2023-03-16T06:39:06;4.60;99.90
43043;DHT22;28667;50.758;6.096;2023-03-16T06:41:40;4.60;99.90
43043;DHT22;28667;50.758;6.096;2023-03-16T06:44:08;4.70;99.90
43043;DHT22;28667;50.758;6.096;2023-03-16T06:46:38;4.80;99.90
43043;DHT22;28667;50.758;6.096;2023-03-16T06:49:06;4.90;99.90
43043;DHT22;28667;50.758;6.096;2023-03-16T06:51:32;5.00;99.90
43043;DHT22;28667;50.758;6.096;2023-03-16T06:53:58;5.00;99.90
43043;DHT22;28667;50.758;6.096;2023-03-16T06:56:24;5.10;99.90
43043;DHT22;28667;50.758;6.096;2023-03-16T06:58:52;5.10;99.90
43043;DHT22;28667;50.758;6.096;2023-03-16T07:01:18;5.20;99.90
43043;DHT22;28667;50.758;6.096;2023-03-16T07:03:44;5.20;99.90
43043;DHT22;28667;50.758;6.096;2023-03-16T07:06:18;5.20;99.90
43043;DHT22;28667;50.758;6.096;2023-03-16T07:08:43;5.20;99.90
43043;DHT22;28667;50.758;6.096;2023-03-16T07:11:10;5.30;99.90
43043;DHT22;28667;50.758;6.096;2023-03-16T07:13:36;5.30;99.90
43043;DHT22;28667;50.758;6.096;2023-03-16T07:16:02;5.40;99.90
43043;DHT22;28667;50.758;6.096;2023-03-16T07:18:29;5.40;99.90
43043;DHT22;28667;50.758;6.096;2023-03-16T07:20:56;5.50;99.90
43043;DHT22;28667;50.758;6.096;2023-03-16T07:23:24;5.50;99.90
43043;DHT22;28667;50.758;6.096;2023-03-16T07:25:54;5.60;99.90
43043;DHT22;28667;50.758;6.096;2023-03-16T07:28:20;5.70;99.90
43043;DHT22;28667;50.758;6.096;2023-03-16T07:30:48;5.70;99.90
43043;DHT22;28667;50.758;6.096;2023-03-16T07:33:15;5.80;99.90
43043;DHT22;28667;50.758;6.096;2023-03-16T07:35:41;5.90;99.90
43043;DHT22;28667;50.758;6.096;2023-03-16T07:38:07;6.00;99.90
43043;DHT22;28667;50.758;6.096;2023-03-16T07:40:36;6.00;99.90
43043;DHT22;28667;50.758;6.096;2023-03-16T07:43:09;6.00;99.90
43043;DHT22;28667;50.758;6.096;2023-03-16T07:45:48;6.00;99.90
43043;DHT22;28667;50.758;6.096;2023-03-16T07:48:17;6.00;99.90
43043;DHT22;28667;50.758;6.096;2023-03-16T07:50:53;6.10;99.90
43043;DHT22;28667;50.758;6.096;2023-03-16T07:53:19;6.00;99.90
43043;DHT22;28667;50.758;6.096;2023-03-16T07:55:50;6.10;99.90
43043;DHT22;28667;50.758;6.096;2023-03-16T07:58:17;6.10;99.90
43043;DHT22;28667;50.758;6.096;2023-03-16T08:00:43;6.20;99.90
43043;DHT22;28667;50.758;6.096;2023-03-16T08:03:08;6.30;99.90
43043;DHT22;28667;50.758;6.096;2023-03-16T08:05:34;6.30;99.90
43043;DHT22;28667;50.758;6.096;2023-03-16T08:08:05;6.40;99.90
43043;DHT22;28667;50.758;6.096;2023-03-16T08:10:35;6.60;99.90
43043;DHT22;28667;50.758;6.096;2023-03-16T08:13:11;6.70;99.90
43043;DHT22;28667;50.758;6.096;2023-03-16T08:15:40;6.90;99.90
43043;DHT22;28667;50.758;6.096;2023-03-16T08:18:16;7.00;99.90
43043;DHT22;28667;50.758;6.096;2023-03-16T08:20:42;7.10;99.90
43043;DHT22;28667;50.758;6.096;2023-03-16T08:23:09;7.20;99.90
43043;DHT22;28667;50.758;6.096;2023-03-16T08:25:40;7.30;99.90
43043;DHT22;28667;50.758;6.096;2023-03-16T08:28:10;7.30;99.90
43043;DHT22;28667;50.758;6.096;2023-03-16T08:30:43;7.40;99.90
43043;DHT22;28667;50.758;6.096;2023-03-16T08:33:34;7.40;99.90
43043;DHT22;28667;50.758;6.096;2023-03-16T08:36:01;7.50;99.90
43043;DHT22;28667;50.758;6.096;2023-03-16T08:38:27;7.50;99.90
43043;DHT22;28667;50.758;6.096;2023-03-16T08:40:54;7.60;99.90
43043;DHT22;28667;50.758;6.096;2023-03-16T08:43:21;7.60;99.90
43043;DHT22;28667;50.758;6.096;2023-03-16T08:45:49;7.70;99.90
43043;DHT22;28667;50.758;6.096;2023-03-16T08:48:19;7.70;99.90
43043;DHT22;28667;50.758;6.096;2023-03-16T08:50:48;7.80;99.90
43043;DHT22;28667;50.758;6.096;2023-03-16T08:53:14;7.90;99.90
43043;DHT22;28667;50.758;6.096;2023-03-16T08:55:40;8.10;99.90
43043;DHT22;28667;50.758;6.096;2023-03-16T08:58:07;8.10;99.90
43043;DHT22;28667;50.758;6.096;2023-03-16T09:00:33;8.20;99.90
43043;DHT22;28667;50.758;6.096;2023-03-16T09:02:59;8.30;99.90
43043;DHT22;28667;50.758;6.096;2023-03-16T09:05:28;8.30;99.90
43043;DHT22;28667;50.758;6.096;2023-03-16T09:07:54;8.30;99.90
43043;DHT22;28667;50.758;6.096;2023-03-16T09:10:21;8.40;99.90
43043;DHT22;28667;50.758;6.096;2023-03-16T09:12:51;8.40;99.90
43043;DHT22;28667;50.758;6.096;2023-03-16T09:15:18;8.50;99.90
43043;DHT22;28667;50.758;6.096;2023-03-16T09:17:45;8.40;99.90
43043;DHT22;28667;50.758;6.096;2023-03-16T09:20:13;8.50;99.90
43043;DHT22;28667;50.758;6.096;2023-03-16T09:22:40;8.60;99.90
43043;DHT22;28667;50.758;6.096;2023-03-16T09:25:07;8.60;99.90
43043;DHT22;28667;50.758;6.096;2023-03-16T09:27:34;8.70;99.90
43043;DHT22;28667;50.758;6.096;2023-03-16T09:30:05;8.80;99.90
43043;DHT22;28667;50.758;6.096;2023-03-16T09:32:32;8.90;99.90
43043;DHT22;28667;50.758;6.096;2023-03-16T09:34:58;9.00;99.90
43043;DHT22;28667;50.758;6.096;2023-03-16T09:37:25;9.10;99.90
43043;DHT22;28667;50.758;6.096;2023-03-16T09:39:51;9.20;99.90
43043;DHT22;28667;50.758;6.096;2023-03-16T09:42:32;9.20;99.90
43043;DHT22;28667;50.758;6.096;2023-03-16T09:45:25;9.20;99.90
43043;DHT22;28667;50.758;6.096;2023-03-16T09:47:57;9.20;99.90
43043;DHT22;28667;50.758;6.096;2023-03-16T09:50:33;9.20;99.90
43043;DHT22;28667;50.758;6.096;2023-03-16T09:53:23;9.30;99.90
43043;DHT22;28667;50.758;6.096;2023-03-16T09:56:13;9.30;99.90
43043;DHT22;28667;50.758;6.096;2023-03-16T09:58:41;9.40;99.90
43043;DHT22;28667;50.758;6.096;2023-03-16T10:07:05;9.40;99.90
43043;DHT22;28667;50.758;6.096;2023-03-16T10:09:53;9.50;99.90
43043;DHT22;28667;50.758;6.096;2023-03-16T10:12:25;9.50;99.90
43043;DHT22;28667;50.758;6.096;2023-03-16T10:17:49;9.50;99.90
43043;DHT22;28667;50.758;6.096;2023-03-16T10:20:20;9.40;99.90
43043;DHT22;28667;50.758;6.096;2023-03-16T10:22:49;9.40;99.90
43043;DHT22;28667;50.758;6.096;2023-03-16T10:25:43;9.50;99.90
43043;DHT22;28667;50.758;6.096;2023-03-16T10:28:17;9.60;99.90
43043;DHT22;28667;50.758;6.096;2023-03-16T10:30:43;9.60;99.90
43043;DHT22;28667;50.758;6.096;2023-03-16T10:33:31;9.70;99.90
43043;DHT22;28667;50.758;6.096;2023-03-16T10:36:14;9.80;99.90
43043;DHT22;28667;50.758;6.096;2023-03-16T10:38:46;9.90;99.90
43043;DHT22;28667;50.758;6.096;2023-03-16T10:41:26;9.90;99.90
43043;DHT22;28667;50.758;6.096;2023-03-16T10:46:24;10.10;99.80
43043;DHT22;28667;50.758;6.096;2023-03-16T10:48:55;10.10;99.80
43043;DHT22;28667;50.758;6.096;2023-03-16T10:51:35;10.10;99.90
43043;DHT22;28667;50.758;6.096;2023-03-16T10:54:15;10.20;99.50
43043;DHT22;28667;50.758;6.096;2023-03-16T10:56:44;10.20;98.80
43043;DHT22;28667;50.758;6.096;2023-03-16T10:59:30;10.30;98.80
43043;DHT22;28667;50.758;6.096;2023-03-16T11:02:02;10.30;99.30
43043;DHT22;28667;50.758;6.096;2023-03-16T11:04:31;10.40;98.80
43043;DHT22;28667;50.758;6.096;2023-03-16T11:06:57;10.40;98.50
43043;DHT22;28667;50.758;6.096;2023-03-16T11:09:34;10.50;98.00
43043;DHT22;28667;50.758;6.096;2023-03-16T11:12:30;10.60;97.80
43043;DHT22;28667;50.758;6.096;2023-03-16T11:15:22;10.80;97.60
43043;DHT22;28667;50.758;6.096;2023-03-16T11:17:50;10.90;97.40
43043;DHT22;28667;50.758;6.096;2023-03-16T11:20:25;11.00;97.50
43043;DHT22;28667;50.758;6.096;2023-03-16T11:22:53;11.20;97.00
43043;DHT22;28667;50.758;6.096;2023-03-16T11:25:30;11.30;96.60
43043;DHT22;28667;50.758;6.096;2023-03-16T11:31:24;11.40;96.00
43043;DHT22;28667;50.758;6.096;2023-03-16T11:33:53;11.50;95.50
43043;DHT22;28667;50.758;6.096;2023-03-16T11:36:49;11.50;95.70
43043;DHT22;28667;50.758;6.096;2023-03-16T11:44:48;11.70;95.90
43043;DHT22;28667;50.758;6.096;2023-03-16T11:53:48;11.50;95.90
43043;DHT22;28667;50.758;6.096;2023-03-16T12:07:28;11.90;95.10
43043;DHT22;28667;50.758;6.096;2023-03-16T12:10:23;12.00;95.90
43043;DHT22;28667;50.758;6.096;2023-03-16T12:15:33;12.20;94.70
43043;DHT22;28667;50.758;6.096;2023-03-16T12:18:20;12.40;94.80
43043;DHT22;28667;50.758;6.096;2023-03-16T12:21:21;12.60;94.00
43043;DHT22;28667;50.758;6.096;2023-03-16T12:23:53;12.70;93.90
43043;DHT22;28667;50.758;6.096;2023-03-16T12:26:23;12.70;92.90
43043;DHT22;28667;50.758;6.096;2023-03-16T12:28:54;12.90;92.70
43043;DHT22;28667;50.758;6.096;2023-03-16T12:31:47;13.00;93.10
43043;DHT22;28667;50.758;6.096;2023-03-16T12:40:21;13.30;92.70
43043;DHT22;28667;50.758;6.096;2023-03-16T12:50:55;13.50;92.90
43043;DHT22;28667;50.758;6.096;2023-03-16T12:56:26;13.50;92.10
43043;DHT22;28667;50.758;6.096;2023-03-16T12:58:56;13.50;92.50
43043;DHT22;28667;50.758;6.096;2023-03-16T13:01:35;13.50;93.50
43043;DHT22;28667;50.758;6.096;2023-03-16T13:04:17;13.60;92.90
43043;DHT22;28667;50.758;6.096;2023-03-16T13:06:46;13.60;92.80
43043;DHT22;28667;50.758;6.096;2023-03-16T13:09:25;13.60;92.60
43043;DHT22;28667;50.758;6.096;2023-03-16T13:11:52;13.50;92.40
43043;DHT22;28667;50.758;6.096;2023-03-16T13:14:47;13.40;92.50
43043;DHT22;28667;50.758;6.096;2023-03-16T13:20:24;13.40;92.60
43043;DHT22;28667;50.758;6.096;2023-03-16T13:28:36;13.40;92.00
43043;DHT22;28667;50.758;6.096;2023-03-16T13:31:27;13.30;92.00
43043;DHT22;28667;50.758;6.096;2023-03-16T13:33:56;13.30;92.10
43043;DHT22;28667;50.758;6.096;2023-03-16T13:36:26;13.20;91.90
43043;DHT22;28667;50.758;6.096;2023-03-16T13:39:03;13.20;91.80
43043;DHT22;28667;50.758;6.096;2023-03-16T13:41:30;13.20;92.10
43043;DHT22;28667;50.758;6.096;2023-03-16T13:43:55;13.10;92.70
43043;DHT22;28667;50.758;6.096;2023-03-16T13:46:27;13.10;92.60
43043;DHT22;28667;50.758;6.096;2023-03-16T13:48:57;13.10;92.80
43043;DHT22;28667;50.758;6.096;2023-03-16T13:51:22;13.20;92.80
43043;DHT22;28667;50.758;6.096;2023-03-16T13:53:48;13.20;92.40
43043;DHT22;28667;50.758;6.096;2023-03-16T13:56:21;13.20;91.40
43043;DHT22;28667;50.758;6.096;2023-03-16T13:58:51;13.20;92.40
43043;DHT22;28667;50.758;6.096;2023-03-16T14:01:25;13.30;91.80
43043;DHT22;28667;50.758;6.096;2023-03-16T14:03:53;13.30;91.80
43043;DHT22;28667;50.758;6.096;2023-03-16T14:06:28;13.30;92.20
43043;DHT22;28667;50.758;6.096;2023-03-16T14:08:56;13.20;91.70
43043;DHT22;28667;50.758;6.096;2023-03-16T14:11:24;13.30;92.40
43043;DHT22;28667;50.758;6.096;2023-03-16T14:13:52;13.20;91.70
43043;DHT22;28667;50.758;6.096;2023-03-16T14:16:20;13.30;91.30
43043;DHT22;28667;50.758;6.096;2023-03-16T14:18:52;13.30;91.90
43043;DHT22;28667;50.758;6.096;2023-03-16T14:24:17;13.40;91.90
43043;DHT22;28667;50.758;6.096;2023-03-16T14:26:46;13.30;92.10
43043;DHT22;28667;50.758;6.096;2023-03-16T14:31:54;13.40;92.10
43043;DHT22;28667;50.758;6.096;2023-03-16T14:37:22;13.50;92.40
43043;DHT22;28667;50.758;6.096;2023-03-16T14:40:00;13.60;91.50
43043;DHT22;28667;50.758;6.096;2023-03-16T14:42:29;13.60;92.00
43043;DHT22;28667;50.758;6.096;2023-03-16T14:44:57;13.60;92.20
43043;DHT22;28667;50.758;6.096;2023-03-16T14:47:27;13.60;91.70
43043;DHT22;28667;50.758;6.096;2023-03-16T14:50:05;13.70;91.50
43043;DHT22;28667;50.758;6.096;2023-03-16T14:52:33;13.80;90.90
43043;DHT22;28667;50.758;6.096;2023-03-16T14:55:00;13.80;90.50
43043;DHT22;28667;50.758;6.096;2023-03-16T14:57:27;13.80;90.00
43043;DHT22;28667;50.758;6.096;2023-03-16T14:59:53;13.80;90.70
43043;DHT22;28667;50.758;6.096;2023-03-16T15:02:30;13.80;90.10
43043;DHT22;28667;50.758;6.096;2023-03-16T15:04:57;13.80;90.20
43043;DHT22;28667;50.758;6.096;2023-03-16T15:07:27;13.70;90.10
43043;DHT22;28667;50.758;6.096;2023-03-16T15:09:55;13.70;90.90
43043;DHT22;28667;50.758;6.096;2023-03-16T15:12:22;13.70;90.50
43043;DHT22;28667;50.758;6.096;2023-03-16T15:14:49;13.70;90.30
43043;DHT22;28667;50.758;6.096;2023-03-16T15:17:33;13.70;90.60
43043;DHT22;28667;50.758;6.096;2023-03-16T15:19:59;13.70;90.50
43043;DHT22;28667;50.758;6.096;2023-03-16T15:22:36;13.70;90.60
43043;DHT22;28667;50.758;6.096;2023-03-16T15:25:22;13.70;90.70
43043;DHT22;28667;50.758;6.096;2023-03-16T15:27:50;13.80;90.10
43043;DHT22;28667;50.758;6.096;2023-03-16T15:30:19;13.80;89.90
43043;DHT22;28667;50.758;6.096;2023-03-16T15:32:45;13.70;89.70
43043;DHT22;28667;50.758;6.096;2023-03-16T15:35:11;13.70;90.90
43043;DHT22;28667;50.758;6.096;2023-03-16T15:37:37;13.60;91.40
43043;DHT22;28667;50.758;6.096;2023-03-16T15:40:15;13.60;90.80
43043;DHT22;28667;50.758;6.096;2023-03-16T15:42:40;13.50;91.10
43043;DHT22;28667;50.758;6.096;2023-03-16T15:45:15;13.50;91.60
43043;DHT22;28667;50.758;6.096;2023-03-16T15:47:49;13.40;91.70
43043;DHT22;28667;50.758;6.096;2023-03-16T15:50:17;13.40;90.90
43043;DHT22;28667;50.758;6.096;2023-03-16T15:52:51;13.40;91.30
43043;DHT22;28667;50.758;6.096;2023-03-16T15:55:38;13.40;91.50
43043;DHT22;28667;50.758;6.096;2023-03-16T15:58:26;13.50;91.70
43043;DHT22;28667;50.758;6.096;2023-03-16T16:00:53;13.50;91.20
43043;DHT22;28667;50.758;6.096;2023-03-16T16:03:22;13.40;91.70
43043;DHT22;28667;50.758;6.096;2023-03-16T16:05:48;13.50;91.70
43043;DHT22;28667;50.758;6.096;2023-03-16T16:08:14;13.40;91.40
43043;DHT22;28667;50.758;6.096;2023-03-16T16:10:41;13.40;91.20
43043;DHT22;28667;50.758;6.096;2023-03-16T16:13:37;13.30;91.10
43043;DHT22;28667;50.758;6.096;2023-03-16T16:16:03;13.30;91.20
43043;DHT22;28667;50.758;6.096;2023-03-16T16:18:33;13.30;91.50
43043;DHT22;28667;50.758;6.096;2023-03-16T16:21:05;13.20;91.20
43043;DHT22;28667;50.758;6.096;2023-03-16T16:23:31;13.20;91.40
43043;DHT22;28667;50.758;6.096;2023-03-16T16:26:02;13.20;91.60
43043;DHT22;28667;50.758;6.096;2023-03-16T16:28:30;13.20;91.60
43043;DHT22;28667;50.758;6.096;2023-03-16T16:30:58;13.20;91.50
43043;DHT22;28667;50.758;6.096;2023-03-16T16:33:31;13.10;91.50
43043;DHT22;28667;50.758;6.096;2023-03-16T16:36:02;13.10;90.90
43043;DHT22;28667;50.758;6.096;2023-03-16T16:38:29;13.10;91.30
43043;DHT22;28667;50.758;6.096;2023-03-16T16:40:56;13.00;90.90
43043;DHT22;28667;50.758;6.096;2023-03-16T16:43:45;13.00;91.60
43043;DHT22;28667;50.758;6.096;2023-03-16T16:46:14;13.00;91.90
43043;DHT22;28667;50.758;6.096;2023-03-16T16:48:53;12.90;91.50
43043;DHT22;28667;50.758;6.096;2023-03-16T16:51:24;12.80;91.90
43043;DHT22;28667;50.758;6.096;2023-03-16T16:53:52;12.70;92.20
43043;DHT22;28667;50.758;6.096;2023-03-16T16:56:31;12.60;92.60
43043;DHT22;28667;50.758;6.096;2023-03-16T16:59:11;12.40;92.40
43043;DHT22;28667;50.758;6.096;2023-03-16T17:01:38;12.30;93.10
43043;DHT22;28667;50.758;6.096;2023-03-16T17:04:05;12.20;92.90
43043;DHT22;28667;50.758;6.096;2023-03-16T17:06:36;12.10;92.70
43043;DHT22;28667;50.758;6.096;2023-03-16T17:09:02;11.90;93.30
43043;DHT22;28667;50.758;6.096;2023-03-16T17:11:29;11.80;94.00
43043;DHT22;28667;50.758;6.096;2023-03-16T17:14:00;11.70;93.90
43043;DHT22;28667;50.758;6.096;2023-03-16T17:16:28;11.60;93.70
43043;DHT22;28667;50.758;6.096;2023-03-16T17:18:57;11.50;93.70
43043;DHT22;28667;50.758;6.096;2023-03-16T17:21:24;11.40;94.30
43043;DHT22;28667;50.758;6.096;2023-03-16T17:23:52;11.30;94.20
43043;DHT22;28667;50.758;6.096;2023-03-16T17:26:23;11.20;94.10